Terminal Aerodrome Forecast
Issued by NWS

Home | Current Version | Previous Version | Text Only | Print | Product List | Glossary Off
Versions: 1 2 3 4 5 6 7 8 9 10 11 12 13 14 15 16 17 18

000
FTUS43 KUNR 120200 AAC
TAFGCC
TAF AMD
KGCC 120229Z 1202/1224 30005KT P6SM BKN015 BKN020 OVC040
     FM120500 18004KT 5SM BR BKN012
     FM121000 18006KT P6SM SKC=

USA.gov is the U.S. government's official web portal to all federal, state and local government web resources and services.